Time;durP1;ratioP1;P1;durP2;ratioP2;P2;SDS_P1;SDS_P2;PMS_P1;PMS_P2;Temp;Humidity;BMP_temperature;BMP_pressure;BME280_temperature;BME280_humidity;BME280_pressure;Samples;Min_cycle;Max_cycle;Signal;HPM_P1;HPM_P2
2023/01/26 00:00:11;;;;;;;60.40;32.10;;;;;;;0.49;88.18;101385.95;107353;1259;98361;-56
2023/01/26 00:03:09;;;;;;;58.20;32.80;;;;;;;0.50;88.02;101383.39;107302;1256;86814;-56
2023/01/26 00:05:46;;;;;;;57.60;31.00;;;;;;;0.50;88.09;101381.42;107330;1256;93877;-54
2023/01/26 00:08:26;;;;;;;56.50;31.20;;;;;;;0.54;88.04;101383.30;107372;1255;79907;-55
2023/01/26 00:11:04;;;;;;;59.10;32.90;;;;;;;0.58;88.18;101380.92;107365;1256;81849;-57
2023/01/26 00:13:38;;;;;;;52.80;31.10;;;;;;;0.54;88.22;101379.54;107381;1257;98389;-57
2023/01/26 00:16:13;;;;;;;;;;;;;;;0.50;88.25;101375.95;107405;1259;88439;-56
2023/01/26 00:18:46;;;;;;;56.70;30.20;;;;;;;0.51;88.13;101374.95;107329;1256;95265;-57
2023/01/26 00:21:22;;;;;;;58.40;33.10;;;;;;;0.51;88.20;101368.25;107356;1256;80798;-57
2023/01/26 00:23:59;;;;;;;58.10;30.70;;;;;;;0.50;88.25;101368.45;107360;1259;82525;-57
2023/01/26 00:26:36;;;;;;;58.60;31.70;;;;;;;0.50;88.23;101369.89;107316;1256;99892;-56
2023/01/26 00:29:10;;;;;;;58.70;31.60;;;;;;;0.54;88.12;101366.60;107266;1259;89384;-56
2023/01/26 00:31:46;;;;;;;;;;;;;;;0.53;88.11;101364.02;107332;1259;94574;-57
2023/01/26 00:34:19;;;;;;;57.70;30.60;;;;;;;0.54;88.15;101367.16;107272;1256;78903;-56
2023/01/26 00:36:52;;;;;;;55.80;30.20;;;;;;;0.56;88.18;101367.70;107356;1255;80274;-57
2023/01/26 00:39:33;;;;;;;53.80;28.80;;;;;;;0.59;88.29;101360.98;107291;1259;98414;-57
2023/01/26 00:42:12;;;;;;;56.70;30.50;;;;;;;0.58;88.16;101361.39;107289;1259;87513;-55
2023/01/26 00:44:44;;;;;;;53.20;30.10;;;;;;;0.57;88.15;101362.52;107297;1259;97240;-55
2023/01/26 00:47:18;;;;;;;55.60;32.00;;;;;;;0.57;88.26;101361.97;107353;1256;78885;-55
2023/01/26 00:49:56;;;;;;;51.50;29.70;;;;;;;0.59;88.19;101357.28;107353;1256;81963;-55
2023/01/26 00:52:30;;;;;;;50.00;30.10;;;;;;;0.61;88.24;101354.50;107280;1259;99492;-54
2023/01/26 00:55:04;;;;;;;;;;;;;;;0.55;88.04;101351.46;107308;1256;89179;-57
2023/01/26 00:57:38;;;;;;;56.60;31.50;;;;;;;0.51;88.07;101346.48;107328;1256;94238;-57
2023/01/26 01:00:17;;;;;;;52.90;28.60;;;;;;;0.50;88.12;101344.92;107365;1256;80591;-55
2023/01/26 01:02:52;;;;;;;51.50;30.80;;;;;;;0.47;88.32;101348.13;107387;1256;80992;-56
2023/01/26 01:05:28;;;;;;;53.00;29.40;;;;;;;0.49;88.28;101352.28;107361;1256;97928;-54
2023/01/26 01:08:04;;;;;;;54.00;30.50;;;;;;;0.54;88.30;101351.01;107342;1259;89190;-55
2023/01/26 01:10:41;;;;;;;57.10;30.00;;;;;;;0.54;88.40;101350.83;107341;1259;95589;-57
2023/01/26 01:13:18;;;;;;;51.90;30.00;;;;;;;0.60;88.33;101349.36;107360;1259;77385;-57
2023/01/26 01:15:57;;;;;;;51.90;29.60;;;;;;;0.66;88.29;101349.55;107373;1259;83202;-55
2023/01/26 01:18:33;;;;;;;52.40;30.60;;;;;;;0.64;88.34;101348.30;107294;1259;99480;-55
2023/01/26 01:21:10;;;;;;;51.00;29.80;;;;;;;0.64;88.33;101340.83;107327;1259;89130;-55
2023/01/26 01:23:45;;;;;;;51.00;30.20;;;;;;;0.63;88.28;101335.39;107305;1255;95760;-55
2023/01/26 01:26:22;;;;;;;52.80;29.20;;;;;;;0.63;88.26;101327.27;107327;1256;78871;-55
2023/01/26 01:28:57;;;;;;;49.90;28.40;;;;;;;0.56;88.35;101322.90;107293;1256;83736;-54
2023/01/26 01:31:28;;;;;;;53.70;28.50;;;;;;;0.55;88.44;101319.98;107322;1259;98156;-58
2023/01/26 01:34:00;;;;;;;52.70;29.40;;;;;;;0.56;88.55;101309.27;107308;1255;87917;-57
2023/01/26 01:36:38;;;;;;;49.90;29.20;;;;;;;0.59;88.54;101306.36;107331;1259;95436;-54
2023/01/26 01:39:12;;;;;;;52.40;31.20;;;;;;;0.62;88.41;101309.04;107244;1256;78903;-53
2023/01/26 01:41:45;;;;;;;51.60;31.00;;;;;;;0.62;88.38;101301.95;107352;1256;82972;-56
2023/01/26 01:44:24;;;;;;;53.00;30.80;;;;;;;0.61;88.49;101298.96;107331;1259;100090;-56
2023/01/26 01:47:05;;;;;;;53.50;31.10;;;;;;;0.63;88.45;101288.23;107361;1256;89089;-54
2023/01/26 01:49:48;;;;;;;55.00;32.40;;;;;;;0.65;88.42;101282.64;107344;1256;94396;-55
2023/01/26 01:52:29;;;;;;;54.60;31.70;;;;;;;0.61;88.31;101278.42;107352;1256;81264;-55
2023/01/26 01:55:14;;;;;;;51.40;28.30;;;;;;;0.62;88.40;101278.58;107364;1259;83268;-54
2023/01/26 01:57:59;;;;;;;49.50;29.60;;;;;;;0.63;88.33;101273.69;107321;1259;98402;-54
2023/01/26 02:00:34;;;;;;;52.00;31.00;;;;;;;0.60;88.39;101270.00;107346;1256;87195;-57
2023/01/26 02:03:13;;;;;;;55.10;30.20;;;;;;;0.64;88.49;101263.70;107342;1259;95185;-57
2023/01/26 02:05:55;;;;;;;53.20;31.30;;;;;;;0.64;88.31;101265.27;107329;1256;78489;-55
2023/01/26 02:08:33;;;;;;;50.70;29.60;;;;;;;0.64;88.46;101268.33;107305;1256;82613;-56
2023/01/26 02:11:18;;;;;;;51.90;30.30;;;;;;;0.68;88.43;101264.88;107352;1259;97689;-56
2023/01/26 02:13:58;;;;;;;51.70;30.70;;;;;;;0.65;88.45;101266.98;107305;1256;89246;-55
2023/01/26 02:16:34;;;;;;;52.40;30.30;;;;;;;0.67;88.27;101265.96;107269;1256;95815;-56
2023/01/26 02:19:16;;;;;;;54.40;31.10;;;;;;;0.68;88.14;101262.72;107294;1256;79894;-55
2023/01/26 02:22:01;;;;;;;52.50;30.00;;;;;;;0.65;88.26;101262.05;107342;1256;82556;-55
2023/01/26 02:24:39;;;;;;;53.60;30.80;;;;;;;0.66;88.42;101257.91;107286;1259;96547;-55
2023/01/26 02:27:18;;;;;;;54.60;32.00;;;;;;;0.71;88.50;101258.23;107315;1259;88833;-57
2023/01/26 02:29:58;;;;;;;53.70;30.40;;;;;;;0.72;88.31;101246.53;107300;1259;94690;-56
2023/01/26 02:32:29;;;;;;;50.50;30.70;;;;;;;0.71;88.38;101247.48;107248;1256;80100;-57
2023/01/26 02:35:03;;;;;;;52.00;29.80;;;;;;;0.74;88.35;101243.02;107319;1259;81598;-57
2023/01/26 02:37:42;;;;;;;52.90;31.90;;;;;;;0.72;88.28;101247.89;107300;1259;100339;-57
2023/01/26 02:40:30;;;;;;;52.00;30.90;;;;;;;0.70;88.44;101245.23;107370;1256;87533;-55
2023/01/26 02:43:08;;;;;;;53.70;31.80;;;;;;;0.73;88.39;101243.40;107228;1256;94236;-55
2023/01/26 02:45:47;;;;;;;51.60;30.60;;;;;;;0.71;88.42;101243.58;107352;1256;81907;-57
2023/01/26 02:51:14;;;;;;;53.30;30.40;;;;;;;0.73;88.25;101239.87;107318;1259;99310;-56
2023/01/26 02:53:54;;;;;;;52.10;31.70;;;;;;;0.71;88.36;101236.80;107247;1257;87624;-56
2023/01/26 02:56:32;;;;;;;53.20;31.90;;;;;;;0.72;88.43;101227.19;107317;1255;93500;-54
2023/01/26 02:59:13;;;;;;;52.10;31.50;;;;;;;0.74;88.58;101222.63;107292;1256;79941;-53
2023/01/26 03:01:57;;;;;;;48.00;29.30;;;;;;;0.73;88.42;101222.65;107324;1256;81969;-57
2023/01/26 03:04:40;;;;;;;50.70;31.20;;;;;;;0.73;88.42;101213.61;107307;1257;99634;-56
2023/01/26 03:07:21;;;;;;;54.30;30.50;;;;;;;0.73;88.39;101211.16;107302;1256;87267;-54
2023/01/26 03:10:00;;;;;;;53.30;32.20;;;;;;;0.69;88.43;101205.90;107331;1259;93815;-54
2023/01/26 03:12:39;;;;;;;52.10;30.90;;;;;;;0.67;88.55;101207.52;107267;1255;80052;-54
2023/01/26 03:27:29;;;;;;;53.10;30.90;;;;;;;0.78;88.56;101187.05;106859;1262;79546;-55
2023/01/26 03:30:07;;;;;;;55.00;30.80;;;;;;;0.79;88.56;101181.45;107247;1256;82460;-58
2023/01/26 03:32:39;;;;;;;51.50;30.00;;;;;;;0.79;88.51;101175.94;107338;1256;99186;-57
2023/01/26 03:35:14;;;;;;;52.30;30.90;;;;;;;0.75;88.66;101178.20;107341;1259;89137;-55
2023/01/26 03:37:59;;;;;;;54.40;31.40;;;;;;;0.72;88.67;101178.58;107314;1256;92415;-56
2023/01/26 03:58:06;;;;;;;57.10;30.80;;;;;;;0.88;88.57;101162.38;106823;1265;83878;-56
2023/01/26 04:00:44;;;;;;;58.00;32.80;;;;;;;0.84;88.68;101164.77;106914;1256;98754;-57
2023/01/26 04:09:22;;;;;;;52.40;32.50;;;;;;;0.81;88.72;101158.81;107308;1259;81572;-55
2023/01/26 04:12:01;;;;;;;55.10;32.00;;;;;;;0.83;88.63;101154.08;107296;1257;83423;-55
2023/01/26 04:23:40;;;;;;;49.20;30.20;;;;;;;0.78;88.64;101152.29;107305;1257;81836;-54
2023/01/26 04:26:12;;;;;;;54.20;31.50;;;;;;;0.81;88.92;101153.16;107365;1259;83124;-57
2023/01/26 04:28:45;;;;;;;58.60;32.10;;;;;;;0.82;88.81;101156.77;107341;1258;98258;-56
2023/01/26 04:31:23;;;;;;;49.80;31.20;;;;;;;0.82;88.84;101156.23;107356;1257;88032;-57
2023/01/26 04:34:10;;;;;;;57.90;32.60;;;;;;;0.85;88.71;101160.27;107355;1256;95573;-56
2023/01/26 04:36:46;;;;;;;51.80;31.20;;;;;;;0.85;88.85;101156.23;107327;1259;81636;-57
2023/01/26 04:39:28;;;;;;;57.60;31.70;;;;;;;0.83;88.86;101152.97;107310;1257;83281;-56
2023/01/26 04:42:04;;;;;;;54.80;32.60;;;;;;;0.84;88.77;101153.46;107300;1257;98804;-55
2023/01/26 04:44:38;;;;;;;53.40;31.10;;;;;;;0.85;88.78;101151.20;107280;1259;88699;-55
2023/01/26 04:47:11;;;;;;;50.90;28.80;;;;;;;0.86;88.80;101152.42;107309;1257;95324;-57
2023/01/26 04:49:47;;;;;;;52.40;29.70;;;;;;;0.84;88.86;101152.20;107287;1259;79100;-56
2023/01/26 04:52:27;;;;;;;51.10;29.70;;;;;;;0.87;88.78;101155.74;107302;1255;80644;-57
2023/01/26 04:55:01;;;;;;;52.60;30.50;;;;;;;0.87;88.95;101154.31;107327;1259;99008;-54
2023/01/26 04:57:40;;;;;;;55.10;30.70;;;;;;;0.85;89.12;101152.84;107330;1259;87904;-55
2023/01/26 05:00:16;;;;;;;58.30;32.60;;;;;;;0.86;89.12;101149.73;107339;1255;94552;-55
2023/01/26 05:02:53;;;;;;;54.60;31.20;;;;;;;0.83;89.00;101147.52;107338;1256;80135;-56
2023/01/26 05:05:28;;;;;;;54.30;31.50;;;;;;;0.84;89.02;101147.98;107340;1259;81644;-55
2023/01/26 05:08:00;;;;;;;;;;;;;;;0.85;88.83;101146.27;107373;1256;99136;-55
2023/01/26 05:10:39;;;;;;;58.70;32.50;;;;;;;0.84;88.90;101142.41;107333;1259;88378;-53
2023/01/26 05:13:13;;;;;;;52.10;28.40;;;;;;;0.81;89.02;101137.34;107328;1258;94566;-53
2023/01/26 05:15:51;;;;;;;53.60;30.00;;;;;;;0.77;88.85;101138.20;107355;1257;80167;-55
2023/01/26 05:18:24;;;;;;;49.90;29.40;;;;;;;0.80;89.13;101141.33;107374;1259;82212;-56
2023/01/26 05:20:58;;;;;;;51.80;29.70;;;;;;;0.83;88.96;101139.70;107381;1259;98590;-54
2023/01/26 05:23:31;;;;;;;56.10;30.60;;;;;;;0.84;89.04;101130.90;107337;1260;87803;-55
2023/01/26 05:26:07;;;;;;;51.60;28.90;;;;;;;0.88;88.90;101128.70;107346;1257;95630;-56
2023/01/26 05:28:44;;;;;;;52.00;30.30;;;;;;;0.83;88.84;101132.04;107330;1256;80353;-55
2023/01/26 05:31:16;;;;;;;52.20;29.60;;;;;;;0.83;88.94;101133.45;107350;1259;82538;-54
2023/01/26 05:33:52;;;;;;;52.10;29.90;;;;;;;0.87;89.05;101131.45;107290;1259;99336;-55
2023/01/26 05:36:31;;;;;;;50.20;29.80;;;;;;;0.87;89.09;101127.92;107316;1259;86661;-57
2023/01/26 05:39:07;;;;;;;55.90;32.10;;;;;;;0.85;89.15;101128.77;107284;1258;94395;-57
2023/01/26 05:41:43;;;;;;;54.60;29.50;;;;;;;0.85;89.12;101128.73;107322;1258;81120;-56
2023/01/26 05:44:22;;;;;;;53.80;30.80;;;;;;;0.88;88.85;101131.91;107316;1257;82872;-55
2023/01/26 05:46:56;;;;;;;52.70;30.00;;;;;;;0.81;89.01;101137.20;107348;1259;99147;-56
2023/01/26 05:49:27;;;;;;;56.60;31.30;;;;;;;0.87;89.18;101135.53;107351;1259;88215;-53
2023/01/26 05:52:07;;;;;;;54.50;30.30;;;;;;;0.95;89.07;101131.39;107374;1259;92814;-56
2023/01/26 05:54:40;;;;;;;53.50;29.80;;;;;;;1.00;89.03;101129.24;107322;1256;78920;-56
2023/01/26 05:57:19;;;;;;;54.70;30.20;;;;;;;0.97;89.15;101137.61;107360;1257;83811;-54
2023/01/26 05:59:57;;;;;;;55.70;29.00;;;;;;;0.92;89.01;101138.86;107341;1259;98168;-54
2023/01/26 06:02:30;;;;;;;57.40;30.00;;;;;;;0.91;88.91;101137.71;107312;1261;88259;-54
2023/01/26 06:05:02;;;;;;;55.20;31.00;;;;;;;0.91;89.07;101140.90;107362;1258;95753;-57
2023/01/26 06:07:39;;;;;;;55.80;28.90;;;;;;;0.89;89.00;101138.91;107339;1258;80311;-57
2023/01/26 06:10:12;;;;;;;53.60;28.60;;;;;;;0.91;89.12;101138.77;107370;1257;81159;-56
2023/01/26 06:12:47;;;;;;;55.60;29.80;;;;;;;0.94;89.05;101134.50;107318;1257;98370;-56
2023/01/26 06:15:30;;;;;;;52.70;30.40;;;;;;;0.99;89.09;101130.16;107341;1260;86919;-54
2023/01/26 06:18:07;;;;;;;52.90;29.50;;;;;;;1.00;88.96;101129.02;107289;1259;92628;-56
2023/01/26 06:20:46;;;;;;;53.60;29.70;;;;;;;0.94;89.17;101130.05;107341;1255;78329;-54
2023/01/26 06:23:22;;;;;;;55.60;29.60;;;;;;;0.93;89.09;101127.09;107364;1259;82380;-57
2023/01/26 06:26:03;;;;;;;56.10;30.10;;;;;;;0.95;89.21;101126.18;107325;1259;97952;-55
2023/01/26 06:28:36;;;;;;;56.30;30.00;;;;;;;0.98;88.92;101125.15;107290;1259;88627;-56
2023/01/26 06:31:15;;;;;;;53.00;27.80;;;;;;;0.97;88.98;101123.77;107298;1257;95748;-56
2023/01/26 06:34:00;;;;;;;51.70;27.80;;;;;;;0.94;88.89;101123.66;107275;1257;81170;-55
2023/01/26 06:36:38;;;;;;;52.20;28.70;;;;;;;0.95;88.88;101122.85;107304;1257;83240;-56
2023/01/26 06:39:16;;;;;;;46.70;26.30;;;;;;;0.99;88.89;101129.16;107339;1256;97673;-57
2023/01/26 06:41:55;;;;;;;50.60;28.50;;;;;;;1.00;88.93;101127.31;107365;1259;87579;-56
2023/01/26 06:44:39;;;;;;;49.90;27.30;;;;;;;1.02;88.92;101127.47;107270;1257;95198;-57
2023/01/26 06:47:13;;;;;;;50.60;27.80;;;;;;;1.04;88.72;101126.45;107322;1260;80773;-55
2023/01/26 06:49:52;;;;;;;49.60;28.20;;;;;;;1.04;88.69;101125.55;107386;1260;82532;-57
2023/01/26 06:52:31;;;;;;;50.00;27.60;;;;;;;1.01;88.73;101117.29;107354;1260;97586;-57
2023/01/26 06:55:17;;;;;;;53.10;28.00;;;;;;;0.99;88.76;101117.05;107393;1257;89174;-57
2023/01/26 06:57:59;;;;;;;53.20;28.70;;;;;;;1.03;88.74;101112.89;107319;1257;95329;-57
2023/01/26 07:00:38;;;;;;;53.70;28.00;;;;;;;1.05;88.85;101113.98;107349;1257;78944;-54
2023/01/26 07:03:14;;;;;;;54.30;29.30;;;;;;;1.05;88.87;101115.71;107291;1259;84075;-55
2023/01/26 07:05:57;;;;;;;49.40;28.60;;;;;;;1.08;88.83;101119.80;107356;1258;99574;-56
2023/01/26 07:08:41;;;;;;;59.90;30.60;;;;;;;1.09;88.96;101118.48;107333;1259;88950;-57
2023/01/26 07:11:20;;;;;;;58.20;31.50;;;;;;;1.12;88.96;101120.70;107302;1255;95230;-54
2023/01/26 07:13:57;;;;;;;60.90;33.40;;;;;;;1.16;88.85;101122.16;107318;1257;78119;-54
2023/01/26 07:16:32;;;;;;;59.10;32.60;;;;;;;1.18;89.01;101117.41;107343;1260;83283;-55
2023/01/26 07:19:11;;;;;;;58.50;32.00;;;;;;;1.22;88.90;101113.63;107248;1260;98299;-56
2023/01/26 07:21:48;;;;;;;58.90;32.70;;;;;;;1.25;88.69;101109.83;107312;1259;88596;-55
2023/01/26 07:24:30;;;;;;;62.50;34.60;;;;;;;1.29;88.70;101110.80;107279;1260;96019;-54
2023/01/26 07:27:02;;;;;;;63.60;32.00;;;;;;;1.30;88.58;101109.66;107368;1258;77846;-55
2023/01/26 07:29:35;;;;;;;59.90;33.10;;;;;;;1.31;88.51;101109.42;107358;1260;83097;-56
2023/01/26 07:32:08;;;;;;;59.60;32.40;;;;;;;1.33;88.43;101105.86;107390;1260;98781;-54
2023/01/26 07:34:43;;;;;;;57.10;31.50;;;;;;;1.37;88.48;101104.65;107447;1257;88475;-55
2023/01/26 07:37:16;;;;;;;55.90;30.80;;;;;;;1.34;88.41;101098.34;107270;1260;94305;-56
2023/01/26 07:39:50;;;;;;;54.40;30.90;;;;;;;1.33;88.36;101100.00;107399;1261;80192;-55
2023/01/26 07:42:24;;;;;;;58.20;31.30;;;;;;;1.29;88.13;101093.77;107408;1258;82213;-55
2023/01/26 07:45:00;;;;;;;54.90;29.80;;;;;;;1.28;88.28;101089.38;107419;1255;100375;-56
2023/01/26 07:47:38;;;;;;;56.70;29.60;;;;;;;1.31;88.36;101094.14;107377;1257;88351;-56
2023/01/26 07:50:13;;;;;;;53.10;30.70;;;;;;;1.37;88.34;101094.95;107326;1259;95029;-56
2023/01/26 07:52:47;;;;;;;51.40;30.00;;;;;;;1.39;88.04;101093.90;107271;1259;81508;-57
2023/01/26 07:55:25;;;;;;;52.00;29.90;;;;;;;1.41;88.00;101097.48;107335;1257;81851;-55
2023/01/26 07:57:57;;;;;;;52.00;30.10;;;;;;;1.43;88.20;101099.10;107357;1258;98927;-55
2023/01/26 08:00:29;;;;;;;52.50;29.80;;;;;;;1.49;88.09;101098.80;107289;1257;88682;-53
2023/01/26 08:03:06;;;;;;;52.60;28.70;;;;;;;1.53;88.12;101096.77;107247;1260;91434;-55
2023/01/26 08:05:47;;;;;;;53.40;29.80;;;;;;;1.54;87.98;101094.31;107375;1257;78598;-57
2023/01/26 08:08:24;;;;;;;49.90;28.30;;;;;;;1.52;87.95;101095.02;107334;1260;83129;-57
2023/01/26 08:11:02;;;;;;;52.00;28.90;;;;;;;1.54;87.90;101095.77;107336;1257;99368;-56
2023/01/26 08:13:37;;;;;;;48.10;27.30;;;;;;;1.59;87.89;101095.57;107334;1260;87445;-57
2023/01/26 08:16:11;;;;;;;48.30;27.50;;;;;;;1.62;87.85;101092.14;107379;1257;94147;-56
2023/01/26 08:18:48;;;;;;;47.10;25.80;;;;;;;1.67;87.85;101097.79;107370;1258;78748;-57
2023/01/26 08:21:25;;;;;;;44.30;26.70;;;;;;;1.73;87.92;101098.95;107454;1258;82661;-54
2023/01/26 08:24:06;;;;;;;47.10;26.70;;;;;;;1.77;87.51;101091.55;107398;1258;98386;-55
2023/01/26 08:26:47;;;;;;;43.50;25.40;;;;;;;1.76;87.56;101091.19;107370;1259;88934;-55
2023/01/26 08:29:19;;;;;;;44.40;26.80;;;;;;;1.78;87.46;101092.52;107272;1257;96782;-54
2023/01/26 08:31:57;;;;;;;44.30;24.80;;;;;;;1.74;87.13;101085.54;107361;1258;79986;-56
2023/01/26 08:34:43;;;;;;;44.90;23.70;;;;;;;1.78;87.21;101082.91;107355;1258;82558;-57
2023/01/26 08:37:25;;;;;;;41.40;24.00;;;;;;;1.88;87.36;101080.08;107307;1258;100083;-54
2023/01/26 08:39:56;;;;;;;42.60;25.00;;;;;;;1.95;87.25;101079.85;107386;1258;87184;-54
2023/01/26 08:42:32;;;;;;;40.80;23.40;;;;;;;2.00;87.41;101078.00;107308;1259;95397;-54
2023/01/26 08:45:07;;;;;;;42.90;24.40;;;;;;;2.07;87.27;101086.73;107357;1256;76551;-55
2023/01/26 08:47:44;;;;;;;39.50;24.50;;;;;;;2.09;86.94;101088.70;107354;1260;81687;-54
2023/01/26 08:50:15;;;;;;;35.40;22.20;;;;;;;2.02;86.80;101089.73;107357;1258;99013;-56
2023/01/26 08:52:47;;;;;;;40.60;23.90;;;;;;;2.05;86.70;101088.10;107330;1257;87848;-56
2023/01/26 08:55:19;;;;;;;36.80;22.40;;;;;;;2.11;86.75;101089.98;107324;1258;95273;-57
2023/01/26 08:57:54;;;;;;;38.60;21.60;;;;;;;2.10;86.73;101091.60;107338;1257;79051;-57
2023/01/26 09:00:33;;;;;;;41.40;23.30;;;;;;;2.15;86.68;101093.89;107332;1259;82825;-53
2023/01/26 09:03:07;;;;;;;36.10;22.10;;;;;;;2.23;86.87;101098.09;107320;1260;100196;-54
2023/01/26 09:05:44;;;;;;;36.90;21.80;;;;;;;2.31;86.63;101102.92;107336;1257;87695;-54
2023/01/26 09:08:20;;;;;;;35.20;23.60;;;;;;;2.31;86.19;101103.07;107308;1257;93296;-54
2023/01/26 09:10:53;;;;;;;35.40;21.30;;;;;;;2.34;85.78;101105.53;107380;1257;79502;-56
2023/01/26 09:13:36;;;;;;;37.00;19.90;;;;;;;2.30;85.77;101106.95;107370;1256;80084;-56
2023/01/26 09:16:14;;;;;;;32.90;20.40;;;;;;;2.23;85.76;101109.58;107344;1257;99722;-54
2023/01/26 09:18:50;;;;;;;34.00;20.80;;;;;;;2.22;85.50;101111.30;107333;1257;87425;-55
2023/01/26 09:21:26;;;;;;;31.30;19.60;;;;;;;2.20;85.43;101110.37;107348;1256;94567;-54
2023/01/26 09:23:58;;;;;;;33.60;20.80;;;;;;;2.18;85.48;101107.19;107343;1260;80217;-54
2023/01/26 09:26:31;;;;;;;30.20;18.30;;;;;;;2.14;85.30;101107.31;107319;1256;82543;-53
2023/01/26 09:29:05;;;;;;;33.20;19.00;;;;;;;2.16;85.22;101110.01;107326;1260;99588;-54
2023/01/26 09:31:43;;;;;;;30.60;18.50;;;;;;;2.12;84.87;101104.98;107315;1258;88147;-54
2023/01/26 09:34:17;;;;;;;29.60;17.70;;;;;;;2.17;84.90;101103.18;107306;1258;93173;-55
2023/01/26 09:36:50;;;;;;;28.40;18.20;;;;;;;2.20;84.86;101102.89;107375;1256;78396;-54
2023/01/26 09:39:22;;;;;;;29.00;18.80;;;;;;;2.16;84.43;101100.20;107099;1257;83805;-54
2023/01/26 09:42:17;;;;;;;28.50;18.40;;;;;;;2.11;84.23;101092.81;107335;1258;98205;-56
2023/01/26 09:45:00;;;;;;;27.20;16.30;;;;;;;2.04;84.13;101087.66;107358;1257;87647;-54
2023/01/26 09:47:50;;;;;;;25.70;16.80;;;;;;;2.01;84.07;101091.08;107314;1257;94782;-53
2023/01/26 09:50:26;;;;;;;28.00;17.30;;;;;;;1.98;83.58;101095.63;107339;1257;78566;-53
2023/01/26 09:53:03;;;;;;;26.10;16.90;;;;;;;1.98;83.89;101093.98;107317;1257;82500;-55
2023/01/26 09:55:41;;;;;;;26.70;15.80;;;;;;;2.01;83.64;101092.52;107367;1260;99345;-56
2023/01/26 09:58:25;;;;;;;24.70;15.80;;;;;;;2.06;83.76;101088.40;107353;1258;88693;-56
2023/01/26 10:01:18;;;;;;;21.50;15.40;;;;;;;2.16;83.85;101080.88;107351;1256;94508;-54
2023/01/26 10:04:04;;;;;;;23.70;15.80;;;;;;;2.12;83.76;101082.91;107355;1258;80240;-54
2023/01/26 10:06:37;;;;;;;23.20;16.30;;;;;;;2.12;83.74;101078.71;107354;1258;81484;-55
2023/01/26 10:09:19;;;;;;;26.10;16.30;;;;;;;2.14;83.61;101071.38;107212;1257;100042;-55
2023/01/26 10:11:57;;;;;;;25.10;16.50;;;;;;;2.16;83.59;101066.10;107366;1260;87259;-54
2023/01/26 10:14:39;;;;;;;25.60;16.00;;;;;;;2.24;83.31;101062.67;107236;1260;92281;-54
2023/01/26 10:17:19;;;;;;;24.80;16.00;;;;;;;2.20;83.29;101063.81;107334;1259;78977;-63
2023/01/26 10:20:03;;;;;;;22.20;15.70;;;;;;;2.25;83.38;101063.58;107348;1257;81595;-57
2023/01/26 10:22:49;;;;;;;24.40;15.90;;;;;;;2.31;82.99;101061.91;107373;1258;98746;-56
2023/01/26 10:25:33;;;;;;;23.70;15.60;;;;;;;2.37;82.98;101057.85;107356;1257;87559;-56
2023/01/26 10:28:15;;;;;;;20.00;11.90;;;;;;;2.33;82.47;101049.97;107314;1259;95297;-56
2023/01/26 10:30:50;;;;;;;23.80;15.30;;;;;;;2.30;82.62;101048.63;107202;1260;78998;-55
2023/01/26 10:33:34;;;;;;;23.80;16.30;;;;;;;2.24;82.48;101047.18;107380;1256;82325;-55
2023/01/26 10:36:09;;;;;;;24.70;15.80;;;;;;;2.29;82.57;101041.79;107345;1258;99249;-57
2023/01/26 10:38:46;;;;;;;21.30;14.60;;;;;;;2.26;82.44;101041.27;107392;1257;87970;-57
2023/01/26 10:41:36;;;;;;;24.30;15.80;;;;;;;2.21;82.11;101039.98;107321;1258;93682;-54
2023/01/26 10:44:32;;;;;;;21.00;14.50;;;;;;;2.17;82.10;101036.18;107359;1257;79511;-54
2023/01/26 10:47:24;;;;;;;25.40;15.80;;;;;;;2.17;82.39;101031.24;107303;1258;82139;-58
2023/01/26 10:50:16;;;;;;;26.60;16.10;;;;;;;2.15;82.02;101032.81;107389;1257;99776;-54
2023/01/26 10:53:01;;;;;;;20.30;15.00;;;;;;;2.10;82.10;101026.95;107392;1257;86489;-54
2023/01/26 10:55:36;;;;;;;25.30;16.10;;;;;;;2.18;82.01;101025.27;107382;1259;95137;-53
2023/01/26 10:58:43;;;;;;;23.30;14.80;;;;;;;2.25;82.03;101018.28;107301;1257;80193;-53
2023/01/26 11:01:21;;;;;;;21.70;15.10;;;;;;;2.26;81.97;101013.74;107432;1256;81797;-56
2023/01/26 11:04:05;;;;;;;23.50;14.50;;;;;;;2.26;82.04;101007.73;107374;1257;99933;-56
2023/01/26 11:06:40;;;;;;;22.40;15.10;;;;;;;2.31;81.80;101006.77;107220;1257;86391;-56
2023/01/26 11:09:19;;;;;;;25.40;15.70;;;;;;;2.35;81.29;101004.17;107361;1259;94809;-56
2023/01/26 11:12:19;;;;;;;22.90;15.60;;;;;;;2.35;81.36;101004.16;107236;1260;79946;-54
2023/01/26 11:15:17;;;;;;;23.70;15.50;;;;;;;2.31;81.29;100998.09;107365;1256;82201;-54
2023/01/26 11:18:00;;;;;;;22.40;15.20;;;;;;;2.23;81.08;100998.23;107199;1260;98797;-55
2023/01/26 11:20:59;;;;;;;22.40;15.80;;;;;;;2.24;81.20;100992.95;107390;1255;89492;-56
2023/01/26 11:24:03;;;;;;;21.20;14.30;;;;;;;2.32;81.46;100986.99;107323;1257;94427;-57
2023/01/26 11:27:28;;;;;;;22.00;14.40;;;;;;;2.43;81.57;100984.36;107377;1255;79569;-56
2023/01/26 11:30:42;;;;;;;21.90;15.20;;;;;;;2.60;81.62;100976.88;107402;1257;80918;-55
2023/01/26 11:33:28;;;;;;;20.50;13.80;;;;;;;2.66;81.55;100979.38;107379;1257;100098;-54
2023/01/26 11:36:16;;;;;;;20.60;14.00;;;;;;;2.68;80.97;100974.27;107417;1255;88800;-54
2023/01/26 11:39:01;;;;;;;23.40;14.90;;;;;;;2.60;80.29;100972.98;107217;1257;94145;-54
2023/01/26 11:41:51;;;;;;;21.70;16.30;;;;;;;2.59;80.69;100976.77;107408;1257;79042;-55
2023/01/26 11:44:59;;;;;;;21.10;15.00;;;;;;;2.55;80.18;100975.33;107447;1259;82750;-56
2023/01/26 11:47:49;;;;;;;20.40;14.30;;;;;;;2.49;80.51;100969.30;106842;1258;743492;-54
2023/01/26 11:50:39;;;;;;;22.40;14.50;;;;;;;2.43;80.59;100968.12;107403;1256;85790;-53
2023/01/26 11:53:48;;;;;;;21.20;15.90;;;;;;;2.46;80.55;100961.02;107375;1257;94756;-54
2023/01/26 11:56:40;;;;;;;24.10;16.00;;;;;;;2.48;80.55;100958.83;107399;1256;80326;-56
2023/01/26 11:59:21;;;;;;;23.50;15.20;;;;;;;2.46;80.37;100954.08;107347;1257;83459;-56
2023/01/26 12:02:05;;;;;;;19.10;13.50;;;;;;;2.45;80.30;100954.67;107397;1256;100388;-55
2023/01/26 12:04:44;;;;;;;20.50;13.80;;;;;;;2.44;80.39;100951.77;107341;1256;88410;-54
2023/01/26 12:07:27;;;;;;;20.90;14.30;;;;;;;2.46;80.40;100951.55;107337;1256;95839;-54
2023/01/26 12:10:05;;;;;;;22.60;15.40;;;;;;;2.41;80.24;100945.00;107358;1257;78612;-56
2023/01/26 12:12:49;;;;;;;21.90;15.40;;;;;;;2.30;80.10;100951.59;107394;1256;80411;-57
2023/01/26 12:15:26;;;;;;;22.00;15.90;;;;;;;2.29;80.08;100954.15;107408;1257;97374;-56
2023/01/26 12:18:04;;;;;;;22.60;15.50;;;;;;;2.26;80.01;100956.02;107380;1257;88254;-56
2023/01/26 12:20:47;;;;;;;23.60;15.60;;;;;;;2.31;80.42;100952.98;107220;1257;91876;-55
2023/01/26 12:23:33;;;;;;;20.30;14.00;;;;;;;2.29;80.07;100951.38;107207;1256;80311;-54
2023/01/26 12:26:14;;;;;;;22.70;14.80;;;;;;;2.22;80.36;100953.19;107382;1257;79819;-56
2023/01/26 12:29:08;;;;;;;23.80;16.30;;;;;;;2.22;80.31;100949.95;107372;1256;98244;-55
2023/01/26 12:31:49;;;;;;;22.10;15.50;;;;;;;2.21;80.02;100945.58;107410;1256;87702;-58
2023/01/26 12:34:33;;;;;;;24.50;15.30;;;;;;;2.22;80.34;100943.95;107384;1257;95840;-58
2023/01/26 12:37:33;;;;;;;21.10;15.10;;;;;;;2.25;80.19;100946.48;107392;1257;79813;-55
2023/01/26 12:40:23;;;;;;;20.80;15.50;;;;;;;2.26;80.30;100945.56;107405;1256;83031;-54
2023/01/26 12:43:16;;;;;;;23.30;15.70;;;;;;;2.27;80.12;100947.38;107365;1256;98536;-55
2023/01/26 12:45:59;;;;;;;22.60;15.50;;;;;;;2.27;80.21;100940.46;107410;1257;87507;-55
2023/01/26 12:48:40;;;;;;;22.60;15.40;;;;;;;2.26;80.42;100933.63;107354;1256;94791;-55
2023/01/26 12:51:20;;;;;;;23.40;15.70;;;;;;;2.22;80.17;100931.52;107395;1256;79815;-58